createdAt,value
2023-09-05T00:02:03.670Z,11.60
2023-09-05T00:05:07.002Z,13.10
2023-09-05T00:08:08.769Z,13.90
2023-09-05T00:11:10.421Z,13.80
2023-09-05T00:14:12.801Z,14.00
2023-09-05T00:17:14.508Z,13.30
2023-09-05T00:20:17.063Z,12.70
2023-09-05T00:23:18.657Z,12.90
2023-09-05T00:26:20.422Z,12.00
2023-09-05T00:29:23.594Z,11.30
2023-09-05T00:32:25.206Z,10.90
2023-09-05T00:35:27.240Z,11.00
2023-09-05T00:38:29.633Z,10.50
2023-09-05T00:41:31.211Z,9.70
2023-09-05T00:44:32.972Z,10.80
2023-09-05T00:47:34.575Z,8.50
2023-09-05T00:50:36.356Z,7.40
2023-09-05T00:53:38.127Z,8.00
2023-09-05T00:56:39.833Z,9.90
2023-09-05T00:59:42.540Z,7.10
2023-09-05T01:02:44.205Z,7.30
2023-09-05T01:05:48.882Z,6.70
2023-09-05T01:08:57.625Z,9.30
2023-09-05T01:11:59.349Z,9.10
2023-09-05T01:15:01.055Z,12.20
2023-09-05T01:18:02.740Z,9.10
2023-09-05T01:21:10.432Z,10.20
2023-09-05T01:24:21.738Z,10.80
2023-09-05T01:27:24.980Z,12.10
2023-09-05T01:30:28.842Z,10.30
2023-09-05T01:33:30.429Z,9.80
2023-09-05T01:36:32.110Z,9.10
2023-09-05T01:39:33.796Z,9.30
2023-09-05T01:42:35.483Z,10.10
2023-09-05T01:45:37.140Z,9.50
2023-09-05T01:48:38.918Z,9.40
2023-09-05T01:51:40.553Z,9.50
2023-09-05T01:54:42.663Z,9.70
2023-09-05T01:57:44.232Z,10.00
2023-09-05T02:00:45.962Z,8.80
2023-09-05T02:03:48.921Z,9.00
2023-09-05T02:06:50.587Z,9.00
2023-09-05T02:09:52.180Z,9.80
2023-09-05T02:12:53.829Z,7.80
2023-09-05T02:15:55.544Z,9.20
2023-09-05T02:18:58.108Z,10.40
2023-09-05T02:21:59.777Z,9.40
2023-09-05T02:25:01.599Z,8.70
2023-09-05T02:28:03.563Z,8.00
2023-09-05T02:31:06.695Z,9.60
2023-09-05T02:34:08.307Z,11.20
2023-09-05T02:37:09.843Z,10.40
2023-09-05T02:40:11.936Z,9.90
2023-09-05T02:43:14.482Z,11.80
2023-09-05T02:46:16.705Z,13.40
2023-09-05T02:49:18.485Z,11.80
2023-09-05T02:52:20.051Z,11.70
2023-09-05T02:55:21.896Z,12.40
2023-09-05T02:58:23.562Z,12.00
2023-09-05T03:01:25.434Z,12.60
2023-09-05T03:04:27.307Z,12.10
2023-09-05T03:07:29.385Z,14.00
2023-09-05T03:10:31.062Z,13.50
2023-09-05T03:13:32.689Z,10.90
2023-09-05T03:16:34.319Z,11.70
2023-09-05T03:19:40.471Z,11.50
2023-09-05T03:22:42.578Z,13.20
2023-09-05T03:25:44.509Z,13.30
2023-09-05T03:28:46.541Z,13.40
2023-09-05T03:31:49.330Z,11.30
2023-09-05T03:34:50.919Z,11.90
2023-09-05T03:37:52.536Z,12.30
2023-09-05T03:40:57.312Z,11.70
2023-09-05T03:43:58.910Z,11.00
2023-09-05T03:47:00.701Z,10.40
2023-09-05T03:50:02.271Z,9.60
2023-09-05T03:53:04.128Z,9.50
2023-09-05T03:56:06.466Z,9.10
2023-09-05T03:59:08.139Z,8.60
2023-09-05T04:02:09.833Z,7.90
2023-09-05T04:05:11.437Z,7.80
2023-09-05T04:08:13.200Z,8.00
2023-09-05T04:11:14.768Z,9.90
2023-09-05T04:14:16.509Z,11.90
2023-09-05T04:17:18.391Z,12.40
2023-09-05T04:20:20.275Z,12.80
2023-09-05T04:23:22.037Z,10.20
2023-09-05T04:26:23.961Z,10.00
2023-09-05T04:29:25.936Z,9.00
2023-09-05T04:32:27.851Z,9.50
2023-09-05T04:35:30.918Z,10.30
2023-09-05T04:38:32.536Z,9.70
2023-09-05T04:41:34.394Z,10.50
2023-09-05T04:44:36.216Z,11.70
2023-09-05T04:47:38.255Z,12.20
2023-09-05T04:50:39.810Z,13.70
2023-09-05T04:53:42.201Z,15.10
2023-09-05T04:56:43.838Z,15.50
2023-09-05T04:59:46.247Z,17.00
2023-09-05T05:02:48.066Z,15.80
2023-09-05T05:05:49.792Z,15.30
2023-09-05T05:08:51.430Z,14.70
2023-09-05T05:11:53.119Z,14.70
2023-09-05T05:14:55.018Z,14.30
2023-09-05T05:17:56.682Z,14.00
2023-09-05T05:20:58.634Z,14.50
2023-09-05T05:24:00.354Z,13.50
2023-09-05T05:27:02.249Z,12.70
2023-09-05T05:30:04.297Z,12.20
2023-09-05T05:33:06.002Z,11.70
2023-09-05T05:36:07.856Z,10.60
2023-09-05T05:39:13.218Z,10.10
2023-09-05T05:42:14.917Z,10.20
2023-09-05T05:45:16.707Z,9.80
2023-09-05T05:48:18.394Z,10.00
2023-09-05T05:51:20.212Z,9.70
2023-09-05T05:54:22.070Z,10.30
2023-09-05T05:57:23.732Z,10.20
2023-09-05T06:00:25.540Z,10.40
2023-09-05T06:03:27.305Z,10.20
2023-09-05T06:06:29.494Z,10.30
2023-09-05T06:09:31.507Z,9.70
2023-09-05T06:12:33.226Z,10.40
2023-09-05T06:15:35.144Z,9.20
2023-09-05T06:18:40.089Z,8.70
2023-09-05T06:21:42.206Z,9.00
2023-09-05T06:24:44.087Z,9.30
2023-09-05T06:27:45.971Z,9.50
2023-09-05T06:30:47.705Z,9.30
2023-09-05T06:33:49.350Z,8.20
2023-09-05T06:36:51.072Z,8.10
2023-09-05T06:39:52.782Z,8.30
2023-09-05T06:42:54.332Z,8.10
2023-09-05T06:46:03.788Z,8.30
2023-09-05T06:49:05.573Z,8.10
2023-09-05T06:52:07.185Z,8.00
2023-09-05T06:55:09.168Z,7.80
2023-09-05T06:58:10.735Z,7.90
2023-09-05T07:01:12.377Z,7.30
2023-09-05T07:04:14.758Z,7.00
2023-09-05T07:07:16.733Z,7.30
2023-09-05T07:10:18.382Z,7.00
2023-09-05T07:13:20.006Z,7.60
2023-09-05T07:16:21.835Z,7.30
2023-09-05T07:19:23.796Z,7.10
2023-09-05T07:22:25.440Z,7.00
2023-09-05T07:25:27.177Z,7.20
2023-09-05T07:28:29.676Z,6.80
2023-09-05T07:31:31.610Z,7.20
2023-09-05T07:34:33.358Z,6.90
2023-09-05T07:37:34.979Z,7.40
2023-09-05T07:40:36.596Z,6.90
2023-09-05T07:43:38.565Z,7.50
2023-09-05T07:46:40.400Z,7.10
2023-09-05T07:49:41.991Z,7.40
2023-09-05T07:52:43.646Z,7.60
2023-09-05T07:55:45.523Z,7.20
2023-09-05T07:58:47.193Z,7.20
2023-09-05T08:01:48.907Z,7.20
2023-09-05T08:04:50.512Z,8.10
2023-09-05T08:07:52.226Z,7.50
2023-09-05T08:10:54.194Z,7.50
2023-09-05T08:13:57.189Z,7.00
2023-09-05T08:16:59.067Z,7.70
2023-09-05T08:20:00.692Z,7.30
2023-09-05T08:23:02.411Z,7.00
2023-09-05T08:26:04.251Z,6.90
2023-09-05T08:29:05.964Z,6.50
2023-09-05T08:32:07.929Z,6.70
2023-09-05T08:35:10.376Z,6.30
2023-09-05T08:38:12.036Z,6.30
2023-09-05T08:41:13.762Z,6.60
2023-09-05T08:44:15.371Z,6.30
2023-09-05T08:47:17.020Z,6.20
2023-09-05T08:50:18.807Z,6.20
2023-09-05T08:53:24.117Z,5.00
2023-09-05T08:56:26.460Z,5.40
2023-09-05T08:59:29.058Z,6.50
2023-09-05T09:02:30.762Z,5.40
2023-09-05T09:05:32.537Z,5.20
2023-09-05T09:08:44.814Z,4.90
2023-09-05T09:11:59.761Z,4.90
2023-09-05T09:15:14.196Z,4.90
2023-09-05T09:18:17.660Z,4.90
2023-09-05T09:21:23.345Z,4.70
2023-09-05T09:24:31.786Z,4.50
2023-09-05T09:27:33.429Z,4.60
2023-09-05T09:30:35.200Z,4.50
2023-09-05T09:33:37.169Z,4.80
2023-09-05T09:36:39.130Z,4.20
2023-09-05T09:39:40.925Z,4.50
2023-09-05T09:42:43.912Z,4.10
2023-09-05T09:45:45.568Z,4.20
2023-09-05T09:48:48.058Z,4.20
2023-09-05T09:51:53.099Z,4.20
2023-09-05T09:54:56.277Z,4.40
2023-09-05T09:58:02.090Z,4.40
2023-09-05T10:01:05.020Z,4.40
2023-09-05T10:04:07.041Z,4.20
2023-09-05T10:07:11.549Z,4.10
2023-09-05T10:10:13.256Z,4.00
2023-09-05T10:13:15.717Z,4.10
2023-09-05T10:16:18.397Z,3.90
2023-09-05T10:19:20.961Z,3.80
2023-09-05T10:22:22.777Z,3.70
2023-09-05T10:25:24.820Z,4.00
2023-09-05T10:28:28.285Z,3.90
2023-09-05T10:31:30.815Z,3.90
2023-09-05T10:34:50.540Z,3.90
2023-09-05T10:37:59.205Z,4.20
2023-09-05T10:41:00.799Z,3.70
2023-09-05T10:44:02.723Z,3.80
2023-09-05T10:47:26.129Z,3.80
2023-09-05T10:50:27.835Z,3.90
2023-09-05T10:53:29.774Z,3.90
2023-09-05T10:56:42.370Z,3.70
2023-09-05T10:59:44.118Z,3.90
2023-09-05T11:02:48.344Z,3.70
2023-09-05T11:05:49.961Z,3.60
2023-09-05T11:09:01.992Z,3.40
2023-09-05T11:12:06.392Z,3.70
2023-09-05T11:15:08.846Z,4.10
2023-09-05T11:18:12.551Z,4.00
2023-09-05T11:21:22.932Z,3.90
2023-09-05T11:24:31.490Z,3.60
2023-09-05T11:27:33.270Z,3.70
2023-09-05T11:30:38.808Z,3.50
2023-09-05T11:33:40.511Z,3.70
2023-09-05T11:36:42.204Z,3.70
2023-09-05T11:39:43.957Z,3.70
2023-09-05T11:42:45.606Z,3.80
2023-09-05T11:45:47.414Z,3.50
2023-09-05T11:48:51.634Z,4.00
2023-09-05T11:51:53.454Z,3.80
2023-09-05T11:54:55.610Z,3.70
2023-09-05T11:57:58.454Z,4.00
2023-09-05T12:01:01.601Z,3.90
2023-09-05T12:04:04.091Z,3.90
2023-09-05T12:07:06.249Z,3.50
2023-09-05T12:10:08.384Z,3.70
2023-09-05T12:13:10.139Z,4.00
2023-09-05T12:16:12.043Z,4.00
2023-09-05T12:19:13.668Z,4.20
2023-09-05T12:22:21.427Z,3.80
2023-09-05T12:25:26.152Z,3.90
2023-09-05T12:28:28.916Z,3.90
2023-09-05T12:31:30.874Z,3.70
2023-09-05T12:34:32.546Z,3.90
2023-09-05T12:37:34.204Z,4.10
2023-09-05T12:40:35.859Z,4.00
2023-09-05T12:43:37.715Z,3.90
2023-09-05T12:46:39.504Z,3.90
2023-09-05T12:49:41.472Z,3.90
2023-09-05T12:52:43.862Z,3.90
2023-09-05T12:55:45.635Z,4.20
2023-09-05T12:58:47.447Z,4.10
2023-09-05T13:01:49.306Z,4.00
2023-09-05T13:04:51.073Z,4.40
2023-09-05T13:07:52.706Z,4.00
2023-09-05T13:10:54.281Z,4.00
2023-09-05T13:13:56.022Z,4.00
2023-09-05T13:16:57.659Z,4.00
2023-09-05T13:19:59.424Z,4.00
2023-09-05T13:23:01.531Z,4.20
2023-09-05T13:26:04.485Z,4.00
2023-09-05T13:29:07.055Z,4.40
2023-09-05T13:32:08.768Z,4.30
2023-09-05T13:35:10.698Z,4.10
2023-09-05T13:38:12.624Z,4.00
2023-09-05T13:41:14.171Z,4.00
2023-09-05T13:44:15.836Z,4.40
2023-09-05T13:47:18.216Z,4.40
2023-09-05T13:50:21.626Z,4.40
2023-09-05T13:53:23.633Z,5.00
2023-09-05T13:56:25.614Z,4.70
2023-09-05T13:59:27.377Z,4.40
2023-09-05T14:02:29.024Z,4.50
2023-09-05T14:05:30.936Z,4.50
2023-09-05T14:08:32.582Z,4.70
2023-09-05T14:11:34.258Z,4.80
2023-09-05T14:14:36.055Z,5.50
2023-09-05T14:17:37.748Z,5.00
2023-09-05T14:20:40.062Z,4.90
2023-09-05T14:23:41.823Z,5.60
2023-09-05T14:26:43.845Z,5.50
2023-09-05T14:29:45.432Z,5.60
2023-09-05T14:32:47.140Z,5.00
2023-09-05T14:35:48.726Z,5.60
2023-09-05T14:38:50.396Z,5.70
2023-09-05T14:41:52.083Z,5.60
2023-09-05T14:44:54.035Z,5.10
2023-09-05T14:47:56.344Z,5.00
2023-09-05T14:50:57.992Z,5.30
2023-09-05T14:53:59.565Z,5.30
2023-09-05T14:57:01.285Z,6.00
2023-09-05T15:00:03.421Z,5.80
2023-09-05T15:03:05.415Z,5.20
2023-09-05T15:06:07.611Z,5.10
2023-09-05T15:09:09.968Z,5.60
2023-09-05T15:12:12.092Z,4.90
2023-09-05T15:15:13.776Z,5.50
2023-09-05T15:18:15.456Z,4.90
2023-09-05T15:21:17.385Z,4.80
2023-09-05T15:24:19.062Z,4.50
2023-09-05T15:27:21.175Z,4.60
2023-09-05T15:30:22.948Z,4.60
2023-09-05T15:33:25.700Z,4.50
2023-09-05T15:36:28.823Z,4.70
2023-09-05T15:39:30.480Z,4.50
2023-09-05T15:42:32.691Z,4.40
2023-09-05T15:45:34.449Z,4.50
2023-09-05T15:48:36.247Z,5.50
2023-09-05T15:51:38.040Z,9.70
2023-09-05T15:54:43.105Z,5.60
2023-09-05T15:57:45.020Z,5.10
2023-09-05T16:00:47.568Z,5.30
2023-09-05T16:03:49.669Z,5.30
2023-09-05T16:06:51.599Z,5.10
2023-09-05T16:09:53.246Z,5.10
2023-09-05T16:12:54.929Z,5.20
2023-09-05T16:15:56.789Z,5.60
2023-09-05T16:19:05.435Z,5.10
2023-09-05T16:22:07.140Z,5.70
2023-09-05T16:25:09.562Z,4.90
2023-09-05T16:28:11.188Z,5.10
2023-09-05T16:31:17.935Z,5.30
2023-09-05T16:34:19.706Z,4.70
2023-09-05T16:37:24.096Z,5.40
2023-09-05T16:40:28.703Z,5.60
2023-09-05T16:43:30.876Z,9.80
2023-09-05T16:46:32.577Z,7.20
2023-09-05T16:49:34.451Z,13.40
2023-09-05T16:52:36.109Z,15.90
2023-09-05T16:55:38.094Z,8.30
2023-09-05T16:58:39.976Z,7.20
2023-09-05T17:01:41.740Z,6.60
2023-09-05T17:04:43.385Z,7.30
2023-09-05T17:07:45.314Z,6.70
2023-09-05T17:10:49.293Z,7.10
2023-09-05T17:13:50.903Z,8.00
2023-09-05T17:16:52.623Z,7.20
2023-09-05T17:19:54.312Z,7.30
2023-09-05T17:22:55.946Z,22.90
2023-09-05T17:25:58.222Z,10.80
2023-09-05T17:28:59.871Z,12.90
2023-09-05T17:32:01.732Z,10.70
2023-09-05T17:35:03.938Z,9.40
2023-09-05T17:38:05.826Z,10.30
2023-09-05T17:41:08.082Z,10.90
2023-09-05T17:44:10.179Z,9.50
2023-09-05T17:47:14.171Z,9.00
2023-09-05T17:50:16.389Z,9.40
2023-09-05T17:53:18.037Z,9.70
2023-09-05T17:56:19.662Z,9.00
2023-09-05T17:59:21.375Z,9.60
2023-09-05T18:02:23.306Z,9.00
2023-09-05T18:05:26.715Z,9.50
2023-09-05T18:08:29.007Z,9.10
2023-09-05T18:11:30.806Z,9.50
2023-09-05T18:14:39.068Z,10.00
2023-09-05T18:17:40.912Z,9.30
2023-09-05T18:20:42.533Z,9.50
2023-09-05T18:23:44.154Z,8.80
2023-09-05T18:26:46.240Z,8.50
2023-09-05T18:29:48.478Z,8.20
2023-09-05T18:32:51.287Z,7.40
2023-09-05T18:35:53.073Z,7.60
2023-09-05T18:38:54.695Z,8.10
2023-09-05T18:41:56.394Z,7.40
2023-09-05T18:44:58.189Z,6.90
2023-09-05T18:48:00.054Z,7.00
2023-09-05T18:51:02.147Z,7.00
2023-09-05T18:54:04.152Z,7.60
2023-09-05T18:57:05.970Z,6.80
2023-09-05T19:00:08.276Z,6.80
2023-09-05T19:03:09.995Z,7.10
2023-09-05T19:06:11.646Z,7.90
2023-09-05T19:09:13.854Z,8.20
2023-09-05T19:12:15.551Z,8.00
2023-09-05T19:15:17.368Z,7.90
2023-09-05T19:18:19.155Z,8.40
2023-09-05T19:21:20.989Z,7.90
2023-09-05T19:24:22.783Z,8.00
2023-09-05T19:27:24.498Z,8.60
2023-09-05T19:30:26.170Z,7.90
2023-09-05T19:33:27.793Z,6.50
2023-09-05T19:36:29.531Z,6.40
2023-09-05T19:39:31.379Z,6.90
2023-09-05T19:42:34.776Z,7.70
2023-09-05T19:45:36.401Z,7.30
2023-09-05T19:48:38.059Z,7.80
2023-09-05T19:51:39.776Z,6.50
2023-09-05T19:54:41.499Z,9.00
2023-09-05T19:57:43.370Z,10.10
2023-09-05T20:00:46.183Z,10.90
2023-09-05T20:03:48.172Z,9.70
2023-09-05T20:06:50.347Z,10.20
2023-09-05T20:09:52.085Z,7.30
2023-09-05T20:12:53.911Z,6.40
2023-09-05T20:15:56.085Z,6.20
2023-09-05T20:18:58.004Z,7.60
2023-09-05T20:21:59.722Z,7.10
2023-09-05T20:25:01.520Z,6.70
2023-09-05T20:28:03.226Z,6.20
2023-09-05T20:31:05.257Z,9.10
2023-09-05T20:34:07.095Z,9.00
2023-09-05T20:37:08.866Z,6.70
2023-09-05T20:40:11.103Z,9.10
2023-09-05T20:43:12.863Z,8.80
2023-09-05T20:46:14.514Z,7.40
2023-09-05T20:49:16.344Z,7.10
2023-09-05T20:52:18.136Z,6.30
2023-09-05T20:55:19.811Z,7.20
2023-09-05T20:58:21.455Z,7.90
2023-09-05T21:01:23.254Z,7.10
2023-09-05T21:04:25.283Z,7.90
2023-09-05T21:07:27.066Z,7.20
2023-09-05T21:10:28.952Z,7.10
2023-09-05T21:13:30.689Z,6.80
2023-09-05T21:16:32.341Z,6.30
2023-09-05T21:19:34.260Z,6.60
2023-09-05T21:22:35.853Z,6.80
2023-09-05T21:25:37.480Z,6.40
2023-09-05T21:28:40.015Z,6.30
2023-09-05T21:31:41.695Z,6.20
2023-09-05T21:34:43.429Z,6.10
2023-09-05T21:37:45.033Z,6.10
2023-09-05T21:40:46.947Z,5.70
2023-09-05T21:43:51.719Z,5.80
2023-09-05T21:46:53.718Z,6.20
2023-09-05T21:49:55.697Z,6.30
2023-09-05T21:52:57.242Z,6.50
2023-09-05T21:55:59.064Z,5.10
2023-09-05T21:59:00.733Z,8.40
2023-09-05T22:02:02.365Z,9.50
2023-09-05T22:05:04.307Z,9.50
2023-09-05T22:08:06.478Z,9.40
2023-09-05T22:11:08.131Z,7.80
2023-09-05T22:14:11.035Z,6.50
2023-09-05T22:17:15.013Z,9.10
2023-09-05T22:20:16.675Z,8.40
2023-09-05T22:23:19.263Z,6.80
2023-09-05T22:26:21.029Z,6.90
2023-09-05T22:29:22.901Z,7.70
2023-09-05T22:32:24.678Z,5.70
2023-09-05T22:35:33.369Z,7.40
2023-09-05T22:38:36.580Z,9.80
2023-09-05T22:41:39.069Z,8.90
2023-09-05T22:44:41.749Z,7.10
2023-09-05T22:47:43.840Z,6.40
2023-09-05T22:50:47.671Z,6.00
2023-09-05T22:53:49.934Z,6.30
2023-09-05T22:56:51.709Z,9.00
2023-09-05T22:59:53.381Z,7.40
2023-09-05T23:02:55.406Z,7.50
2023-09-05T23:05:57.588Z,7.40
2023-09-05T23:08:59.434Z,7.30
2023-09-05T23:12:02.171Z,6.90
2023-09-05T23:15:05.103Z,7.00
2023-09-05T23:18:07.822Z,6.60
2023-09-05T23:21:09.744Z,7.00
2023-09-05T23:24:11.329Z,7.70
2023-09-05T23:27:13.462Z,6.80
2023-09-05T23:30:15.279Z,6.00
2023-09-05T23:33:18.114Z,6.10
2023-09-05T23:36:20.825Z,5.70
2023-09-05T23:39:23.126Z,6.40
2023-09-05T23:42:25.140Z,6.10
2023-09-05T23:45:27.873Z,5.70
2023-09-05T23:48:29.731Z,5.50
2023-09-05T23:51:31.671Z,6.10
2023-09-05T23:54:33.380Z,6.40
2023-09-05T23:57:35.206Z,5.00
